Time;durP1;ratioP1;P1;durP2;ratioP2;P2;SDS_P1;SDS_P2;PMS_P1;PMS_P2;Temp;Humidity;BMP_temperature;BMP_pressure;BME280_temperature;BME280_humidity;BME280_pressure;Samples;Min_cycle;Max_cycle;Signal;HPM_P1;HPM_P2
2021/11/10 00:00:35;;;;;;;8.80;7.90;;;;;21.70;101424.00;;;;2077534;28;20228;-46
2021/11/10 00:01:35;;;;;;;9.27;8.40;;;;;21.60;101419.00;;;;2078208;28;20935;-47
2021/11/10 00:02:36;;;;;;;10.30;8.87;;;;;21.60;101407.00;;;;2078624;28;20241;-47
2021/11/10 00:03:36;;;;;;;9.07;8.27;;;;;21.60;101419.00;;;;2075575;28;20705;-46
2021/11/10 00:04:36;;;;;;;9.27;8.37;;;;;21.60;101415.00;;;;2078213;28;20217;-46
2021/11/10 00:05:38;;;;;;;9.00;8.10;;;;;21.60;101417.00;;;;2078408;28;20220;-46
2021/11/10 00:06:38;;;;;;;9.00;8.10;;;;;21.60;101421.00;;;;2076673;28;20577;-46
2021/11/10 00:07:39;;;;;;;8.43;7.63;;;;;21.60;101420.00;;;;2072699;28;20213;-45
2021/11/10 00:08:39;;;;;;;8.20;7.40;;;;;21.60;101410.00;;;;2072793;28;20287;-46
2021/11/10 00:09:39;;;;;;;8.20;7.50;;;;;21.60;101417.00;;;;2071851;28;20217;-45
2021/11/10 00:10:40;;;;;;;9.10;7.70;;;;;21.40;101413.00;;;;2073071;28;20224;-45
2021/11/10 00:11:40;;;;;;;8.33;7.20;;;;;21.60;101417.00;;;;2078295;28;20221;-49
2021/11/10 00:12:41;;;;;;;8.50;7.70;;;;;21.60;101413.00;;;;2078146;28;20224;-45
2021/11/10 00:13:41;;;;;;;8.63;7.73;;;;;21.60;101410.00;;;;2078339;28;20694;-45
2021/11/10 00:14:42;;;;;;;8.73;7.40;;;;;21.60;101411.00;;;;2078076;28;20518;-45
2021/11/10 00:15:42;;;;;;;7.67;6.97;;;;;21.60;101407.00;;;;2078128;28;20686;-46
2021/11/10 00:16:42;;;;;;;8.10;7.30;;;;;21.60;101397.00;;;;2069715;28;20214;-45
2021/11/10 00:17:43;;;;;;;7.73;7.03;;;;;21.60;101402.00;;;;2069883;28;20209;-46
2021/11/10 00:18:43;;;;;;;8.30;7.33;;;;;21.50;101402.00;;;;2078063;28;20275;-46
2021/11/10 00:19:44;;;;;;;7.37;6.67;;;;;21.60;101399.00;;;;2078694;28;20301;-45
2021/11/10 00:20:45;;;;;;;7.88;7.07;;;;;21.60;101397.00;;;;2078664;28;20244;-47
2021/11/10 00:21:45;;;;;;;7.33;6.67;;;;;21.50;101401.00;;;;2078712;28;20700;-48
2021/11/10 00:22:46;;;;;;;7.27;6.63;;;;;21.60;101404.00;;;;2078334;28;20472;-48
2021/11/10 00:23:46;;;;;;;7.23;6.53;;;;;21.50;101399.00;;;;2075021;28;20959;-48
2021/11/10 00:24:47;;;;;;;7.50;6.80;;;;;21.50;101398.00;;;;2078202;28;20221;-49
2021/11/10 00:25:47;;;;;;;7.50;6.73;;;;;21.50;101394.00;;;;2078230;28;20275;-47
2021/11/10 00:26:47;;;;;;;7.37;6.60;;;;;21.50;101391.00;;;;2078237;28;20209;-45
2021/11/10 00:27:48;;;;;;;7.40;6.70;;;;;21.50;101389.00;;;;2078327;28;20210;-45
2021/11/10 00:28:48;;;;;;;7.17;5.97;;;;;21.30;101387.00;;;;2074343;28;20978;-45
2021/11/10 00:29:49;;;;;;;7.00;6.40;;;;;21.50;101387.00;;;;2077286;28;20706;-49
2021/11/10 00:30:49;;;;;;;6.73;6.13;;;;;21.50;101388.00;;;;2077974;28;20570;-46
2021/11/10 00:31:50;;;;;;;7.37;6.67;;;;;21.50;101391.00;;;;2078303;28;20589;-45
2021/11/10 00:32:50;;;;;;;7.03;6.43;;;;;21.50;101384.00;;;;2077910;28;20213;-45
2021/11/10 00:33:50;;;;;;;7.50;6.70;;;;;21.50;101386.00;;;;2076728;28;20216;-47
2021/11/10 00:34:51;;;;;;;6.90;6.17;;;;;21.50;101395.00;;;;2072151;28;20202;-46
2021/11/10 00:35:53;;;;;;;6.50;5.90;;;;;21.50;101395.00;;;;2075841;28;20209;-46
2021/11/10 00:36:53;;;;;;;7.10;6.40;;;;;21.50;101389.00;;;;2074275;28;20210;-46
2021/11/10 00:37:53;;;;;;;5.83;5.33;;;;;21.50;101393.00;;;;2071314;28;20306;-45
2021/11/10 00:38:54;;;;;;;6.53;5.93;;;;;21.50;101395.00;;;;2070390;28;20214;-45
2021/11/10 00:39:54;;;;;;;7.57;6.20;;;;;21.50;101388.00;;;;2072221;28;20237;-44
2021/11/10 00:40:55;;;;;;;6.30;5.70;;;;;21.50;101389.00;;;;2069631;28;20214;-44
2021/11/10 00:41:55;;;;;;;6.17;5.57;;;;;21.50;101383.00;;;;2069563;28;20734;-49
2021/11/10 00:42:55;;;;;;;6.67;5.60;;;;;21.50;101376.00;;;;2070240;28;20461;-48
2021/11/10 00:44:00;;;;;;;6.37;5.77;;;;;21.40;101382.00;;;;2064804;28;20220;-46
2021/11/10 00:45:00;;;;;;;5.65;5.15;;;;;21.40;101377.00;;;;2077532;28;20582;-45
2021/11/10 00:46:00;;;;;;;6.30;5.70;;;;;21.50;101383.00;;;;2070441;28;20221;-49
2021/11/10 00:47:03;;;;;;;6.30;5.70;;;;;21.50;101386.00;;;;2070252;28;20226;-45
2021/11/10 00:48:04;;;;;;;6.55;5.30;;;;;21.50;101389.00;;;;2069667;28;20230;-49
2021/11/10 00:49:04;;;;;;;5.43;4.93;;;;;21.50;101387.00;;;;2069050;28;20556;-45
2021/11/10 00:50:05;;;;;;;5.67;5.07;;;;;21.40;101386.00;;;;2069638;28;20233;-48
2021/11/10 00:51:05;;;;;;;5.97;5.40;;;;;21.40;101378.00;;;;2069878;28;20591;-46
2021/11/10 00:52:06;;;;;;;6.30;5.43;;;;;21.40;101387.00;;;;2070247;28;21014;-49
2021/11/10 00:53:06;;;;;;;6.00;5.40;;;;;21.40;101383.00;;;;2070187;28;20695;-46
2021/11/10 00:54:07;;;;;;;5.20;4.70;;;;;21.40;101385.00;;;;2069046;28;20276;-47
2021/11/10 00:55:07;;;;;;;6.13;5.53;;;;;21.40;101382.00;;;;2069837;28;20320;-46
2021/11/10 00:56:08;;;;;;;5.80;5.30;;;;;21.40;101383.00;;;;2069777;28;20228;-46
2021/11/10 00:57:08;;;;;;;6.20;5.60;;;;;21.40;101393.00;;;;2070067;28;20385;-45
2021/11/10 00:58:09;;;;;;;5.50;4.97;;;;;21.40;101396.00;;;;2067778;28;20214;-46
2021/11/10 00:59:09;;;;;;;5.93;5.33;;;;;21.40;101394.00;;;;2068732;28;20229;-49
2021/11/10 01:00:10;;;;;;;5.00;4.60;;;;;21.40;101393.00;;;;2076529;28;20456;-47
2021/11/10 01:01:11;;;;;;;5.43;4.73;;;;;21.40;101386.00;;;;2077491;28;20217;-46
2021/11/10 01:02:11;;;;;;;4.90;4.40;;;;;21.40;101385.00;;;;2077947;28;20463;-45
2021/11/10 01:03:12;;;;;;;5.20;4.70;;;;;21.40;101387.00;;;;2075135;28;20271;-47
2021/11/10 01:04:13;;;;;;;6.10;5.30;;;;;21.40;101381.00;;;;2078266;28;20291;-46
2021/11/10 01:05:14;;;;;;;5.97;4.85;;;;;21.40;101377.00;;;;2077902;28;20210;-46
2021/11/10 01:06:14;;;;;;;5.73;5.07;;;;;21.40;101381.00;;;;2077816;28;20209;-47
2021/11/10 01:07:16;;;;;;;4.80;4.40;;;;;21.40;101373.00;;;;2072663;28;21276;-46
2021/11/10 01:08:16;;;;;;;4.85;4.45;;;;;21.50;101386.00;;;;2070711;28;20214;-45
2021/11/10 01:09:17;;;;;;;5.03;4.60;;;;;21.40;101382.00;;;;2069922;28;20222;-49
2021/11/10 01:10:17;;;;;;;6.50;4.67;;;;;21.40;101385.00;;;;2066244;28;20214;-46
2021/11/10 01:11:18;;;;;;;4.97;4.47;;;;;21.40;101376.00;;;;2070066;28;20623;-47
2021/11/10 01:12:18;;;;;;;4.53;4.13;;;;;21.40;101381.00;;;;2069985;28;20305;-46
2021/11/10 01:13:20;;;;;;;5.50;4.37;;;;;21.40;101376.00;;;;2067229;28;20210;-45
2021/11/10 01:14:20;;;;;;;5.00;4.50;;;;;21.40;101382.00;;;;2070800;28;20711;-48
2021/11/10 01:15:20;;;;;;;4.50;4.10;;;;;21.40;101373.00;;;;2072419;28;20229;-46
2021/11/10 01:16:21;;;;;;;4.73;4.27;;;;;21.30;101372.00;;;;2074116;28;20210;-45
2021/11/10 01:17:21;;;;;;;4.30;3.90;;;;;21.30;101367.00;;;;2071326;28;20217;-45
2021/11/10 01:18:21;;;;;;;5.03;4.33;;;;;21.30;101371.00;;;;2070337;28;20302;-44
2021/11/10 01:19:22;;;;;;;4.63;4.23;;;;;21.30;101377.00;;;;2069360;28;20577;-45
2021/11/10 01:20:22;;;;;;;4.60;4.10;;;;;21.30;101371.00;;;;2070358;28;20276;-45
2021/11/10 01:21:22;;;;;;;3.90;3.60;;;;;21.30;101370.00;;;;2070307;28;20213;-46
2021/11/10 01:22:23;;;;;;;4.40;4.00;;;;;21.30;101371.00;;;;2071820;28;20214;-47
2021/11/10 01:23:23;;;;;;;4.30;3.90;;;;;21.30;101360.00;;;;2069183;28;20210;-46
2021/11/10 01:24:24;;;;;;;4.50;4.10;;;;;21.30;101365.00;;;;2074285;28;20210;-44
2021/11/10 01:25:24;;;;;;;4.67;4.27;;;;;21.30;101360.00;;;;2073108;28;20212;-48
2021/11/10 01:26:25;;;;;;;4.80;4.40;;;;;21.40;101361.00;;;;2071238;28;20214;-48
2021/11/10 01:27:25;;;;;;;4.33;3.93;;;;;21.40;101361.00;;;;2069663;28;20221;-47
2021/11/10 01:28:25;;;;;;;4.23;3.83;;;;;21.30;101367.00;;;;2068707;28;20260;-46
2021/11/10 01:29:26;;;;;;;4.13;3.73;;;;;21.40;101371.00;;;;2076586;28;20224;-48
2021/11/10 01:30:26;;;;;;;6.27;3.80;;;;;21.40;101369.00;;;;2073603;28;20214;-46
2021/11/10 01:31:26;;;;;;;4.30;3.90;;;;;21.30;101368.00;;;;2070653;28;20225;-46
2021/11/10 01:32:27;;;;;;;4.00;3.60;;;;;21.30;101364.00;;;;2070417;28;20301;-45
2021/11/10 01:33:27;;;;;;;4.33;3.93;;;;;21.30;101359.00;;;;2069565;28;20210;-46
2021/11/10 01:34:27;;;;;;;4.33;3.93;;;;;21.30;101360.00;;;;2069781;28;20210;-45
2021/11/10 01:35:28;;;;;;;4.23;3.80;;;;;21.30;101358.00;;;;2070249;28;20332;-45
2021/11/10 01:36:28;;;;;;;4.30;3.90;;;;;21.30;101357.00;;;;2070313;28;20237;-46
2021/11/10 01:37:28;;;;;;;4.07;3.70;;;;;21.30;101356.00;;;;2070349;28;20249;-50
2021/11/10 01:38:29;;;;;;;6.63;4.20;;;;;21.30;101352.00;;;;2070451;28;20214;-48
2021/11/10 01:39:29;;;;;;;4.23;3.83;;;;;21.30;101356.00;;;;2070797;28;20300;-47
2021/11/10 01:40:30;;;;;;;4.20;3.80;;;;;21.30;101350.00;;;;2078893;28;20232;-45
2021/11/10 01:41:37;;;;;;;3.90;3.50;;;;;21.30;101346.00;;;;2079899;28;20206;-45
2021/11/10 01:42:41;;;;;;;4.82;3.90;;;;;21.30;101346.00;;;;2080072;28;20274;-45
2021/11/10 01:43:42;;;;;;;4.05;3.72;;;;;21.30;101349.00;;;;2074930;28;20214;-49
2021/11/10 01:44:42;;;;;;;4.13;3.77;;;;;21.30;101350.00;;;;2071688;28;20293;-47
2021/11/10 01:45:43;;;;;;;4.17;3.77;;;;;21.30;101349.00;;;;2071370;28;20206;-47
2021/11/10 01:46:43;;;;;;;4.10;3.70;;;;;21.30;101347.00;;;;2071683;28;20218;-47
2021/11/10 01:47:44;;;;;;;3.80;3.50;;;;;21.20;101342.00;;;;2071880;28;20677;-45
2021/11/10 01:48:44;;;;;;;4.20;3.50;;;;;21.20;101346.00;;;;2070919;28;20229;-45
2021/11/10 01:49:44;;;;;;;4.70;4.30;;;;;21.30;101350.00;;;;2071131;28;20707;-46
2021/11/10 01:50:45;;;;;;;3.93;3.40;;;;;21.20;101344.00;;;;2071506;28;20215;-48
2021/11/10 01:51:49;;;;;;;4.13;3.73;;;;;21.30;101349.00;;;;2075779;28;20336;-48
2021/11/10 01:52:49;;;;;;;3.60;3.30;;;;;21.30;101351.00;;;;2074502;28;20280;-47
2021/11/10 01:53:52;;;;;;;3.60;3.30;;;;;21.30;101337.00;;;;2071973;28;20214;-46
2021/11/10 01:54:52;;;;;;;3.80;3.50;;;;;21.20;101342.00;;;;2071147;28;20218;-45
2021/11/10 01:55:52;;;;;;;3.70;3.40;;;;;21.20;101347.00;;;;2070012;28;20232;-46
2021/11/10 01:56:53;;;;;;;4.17;3.50;;;;;21.20;101344.00;;;;2070860;28;20218;-44
2021/11/10 01:57:53;;;;;;;3.40;3.10;;;;;21.20;101348.00;;;;2070755;28;20218;-46
2021/11/10 01:58:54;;;;;;;3.50;3.20;;;;;21.20;101352.00;;;;2070090;28;20214;-47
2021/11/10 02:00:14;;;;;;;3.70;3.40;;;;;21.20;101349.00;;;;2075998;28;20237;-46
2021/11/10 02:01:15;;;;;;;3.80;3.38;;;;;21.20;101348.00;;;;2078768;28;20213;-47
2021/11/10 02:02:22;;;;;;;4.20;3.80;;;;;21.20;101356.00;;;;2079165;28;20783;-46
2021/11/10 02:03:23;;;;;;;3.92;3.33;;;;;21.20;101339.00;;;;2079040;28;20441;-46
2021/11/10 02:04:26;;;;;;;3.53;3.23;;;;;21.30;101339.00;;;;2079389;28;20596;-45
2021/11/10 02:05:27;;;;;;;3.58;3.28;;;;;21.20;101334.00;;;;2079323;28;20272;-45
2021/11/10 02:06:27;;;;;;;3.97;3.57;;;;;21.20;101340.00;;;;2078920;28;20293;-46
2021/11/10 02:07:28;;;;;;;3.40;3.10;;;;;21.20;101339.00;;;;2079245;28;20210;-49
2021/11/10 02:08:28;;;;;;;4.47;3.40;;;;;21.20;101334.00;;;;2075280;28;20707;-46
2021/11/10 02:09:29;;;;;;;4.20;3.37;;;;;21.20;101329.00;;;;2078275;28;20732;-46
2021/11/10 02:10:29;;;;;;;3.63;3.33;;;;;21.20;101334.00;;;;2073719;28;20938;-46
2021/11/10 02:11:29;;;;;;;4.33;3.60;;;;;21.20;101326.00;;;;2071043;28;20210;-45
2021/11/10 02:12:30;;;;;;;3.80;3.50;;;;;21.20;101327.00;;;;2070744;28;20582;-45
2021/11/10 02:13:30;;;;;;;4.33;3.37;;;;;21.20;101328.00;;;;2070950;28;20233;-46
2021/11/10 02:14:30;;;;;;;3.27;3.00;;;;;21.20;101321.00;;;;2070888;28;20364;-45
2021/11/10 02:15:31;;;;;;;3.73;3.40;;;;;21.20;101321.00;;;;2070783;28;20223;-44
2021/11/10 02:16:31;;;;;;;3.73;3.40;;;;;21.20;101329.00;;;;2069777;28;20218;-45
2021/11/10 02:17:32;;;;;;;3.43;3.10;;;;;21.20;101320.00;;;;2069150;28;20280;-44
2021/11/10 02:18:32;;;;;;;3.13;2.83;;;;;21.10;101316.00;;;;2072408;28;20214;-44
2021/11/10 02:19:33;;;;;;;3.70;2.70;;;;;21.20;101316.00;;;;2078100;28;20213;-46
2021/11/10 02:20:34;;;;;;;3.60;3.30;;;;;21.20;101317.00;;;;2079272;28;20326;-46
2021/11/10 02:21:36;;;;;;;3.30;3.00;;;;;21.20;101316.00;;;;2075936;28;20218;-46
2021/11/10 02:22:37;;;;;;;3.92;3.10;;;;;21.20;101309.00;;;;2071217;28;20214;-47
2021/11/10 02:23:38;;;;;;;3.67;3.37;;;;;21.20;101314.00;;;;2071053;28;20286;-45
2021/11/10 02:24:39;;;;;;;4.00;2.70;;;;;21.20;101314.00;;;;2070898;28;20465;-47
2021/11/10 02:25:39;;;;;;;3.58;3.28;;;;;21.10;101312.00;;;;2070873;28;20453;-45
2021/11/10 02:26:42;;;;;;;2.90;2.70;;;;;21.10;101314.00;;;;2070701;28;20655;-45
2021/11/10 02:27:42;;;;;;;2.60;2.40;;;;;21.20;101311.00;;;;2071168;28;20735;-45
2021/11/10 02:28:42;;;;;;;3.57;3.27;;;;;21.20;101311.00;;;;2073431;28;20264;-49
2021/11/10 02:29:43;;;;;;;3.70;3.10;;;;;21.20;101318.00;;;;2077299;28;20254;-47
2021/11/10 02:30:43;;;;;;;2.73;2.50;;;;;21.10;101307.00;;;;2079424;28;20217;-46
2021/11/10 02:31:44;;;;;;;3.37;3.07;;;;;21.10;101302.00;;;;2079192;28;20210;-45
2021/11/10 02:32:58;;;;;;;3.70;3.33;;;;;21.20;101311.00;;;;2079325;28;20216;-45
2021/11/10 02:34:02;;;;;;;3.78;2.67;;;;;21.10;101310.00;;;;2078692;28;20299;-47
2021/11/10 02:35:03;;;;;;;3.45;3.15;;;;;21.10;101308.00;;;;2078893;28;20233;-47
2021/11/10 02:36:05;;;;;;;3.00;2.80;;;;;21.10;101309.00;;;;2078915;28;20256;-45
2021/11/10 02:37:05;;;;;;;4.85;2.80;;;;;21.10;101306.00;;;;2078884;28;20217;-46
2021/11/10 02:38:06;;;;;;;3.33;2.80;;;;;21.10;101311.00;;;;2078906;28;20231;-45
2021/11/10 02:39:09;;;;;;;3.10;2.80;;;;;21.10;101308.00;;;;2077915;28;20916;-44
2021/11/10 02:40:09;;;;;;;3.38;2.90;;;;;21.10;101308.00;;;;2079062;28;20709;-46
2021/11/10 02:41:10;;;;;;;3.57;2.80;;;;;21.10;101306.00;;;;2078960;28;20213;-45
2021/11/10 02:42:10;;;;;;;3.27;2.87;;;;;21.20;101309.00;;;;2078774;28;20227;-46
2021/11/10 02:43:11;;;;;;;3.20;2.37;;;;;21.00;101300.00;;;;2078876;28;20304;-46
2021/11/10 02:44:11;;;;;;;4.43;2.80;;;;;21.10;101306.00;;;;2079342;28;20313;-48
2021/11/10 02:45:12;;;;;;;3.43;2.90;;;;;21.10;101308.00;;;;2079341;28;20251;-47
2021/11/10 02:46:12;;;;;;;2.90;2.70;;;;;21.10;101301.00;;;;2079293;28;20222;-46
2021/11/10 02:47:13;;;;;;;3.73;2.80;;;;;21.10;101303.00;;;;2070627;28;20321;-45
2021/11/10 02:48:13;;;;;;;2.67;2.47;;;;;21.10;101294.00;;;;2070668;28;20229;-47
2021/11/10 02:49:14;;;;;;;2.83;2.40;;;;;21.10;101304.00;;;;2085943;28;20217;-45
2021/11/10 02:50:14;;;;;;;3.43;2.77;;;;;21.10;101307.00;;;;2079433;28;20213;-46
2021/11/10 02:51:14;;;;;;;3.57;2.80;;;;;21.10;101299.00;;;;2078502;28;20244;-49
2021/11/10 02:52:17;;;;;;;3.10;2.80;;;;;21.10;101309.00;;;;2071614;28;20283;-48
2021/11/10 02:53:18;;;;;;;3.20;2.90;;;;;21.10;101308.00;;;;2071395;28;20583;-46
2021/11/10 02:54:18;;;;;;;2.60;2.40;;;;;21.10;101309.00;;;;2072744;28;20206;-45
2021/11/10 02:55:19;;;;;;;2.80;2.60;;;;;21.10;101303.00;;;;2072505;28;20807;-47
2021/11/10 02:56:19;;;;;;;3.27;2.93;;;;;21.10;101301.00;;;;2070908;28;20206;-46
2021/11/10 02:57:20;;;;;;;3.20;2.90;;;;;21.10;101310.00;;;;2078400;28;20214;-48
2021/11/10 02:58:20;;;;;;;3.05;2.72;;;;;21.10;101300.00;;;;2072952;28;20352;-46
2021/11/10 02:59:21;;;;;;;3.03;2.70;;;;;21.10;101306.00;;;;2071726;28;20467;-44
2021/11/10 03:00:22;;;;;;;3.07;2.77;;;;;21.00;101308.00;;;;2070876;28;20220;-47
2021/11/10 03:01:22;;;;;;;3.40;3.10;;;;;21.10;101310.00;;;;2070972;28;20457;-46
2021/11/10 03:02:27;;;;;;;3.10;2.80;;;;;21.10;101308.00;;;;2071024;28;20293;-45
2021/11/10 03:03:27;;;;;;;3.45;3.15;;;;;21.10;101308.00;;;;2070638;28;20654;-46
2021/11/10 03:04:29;;;;;;;3.47;2.80;;;;;21.10;101307.00;;;;2071003;28;20225;-46
2021/11/10 03:05:30;;;;;;;2.70;2.50;;;;;21.10;101308.00;;;;2071227;28;20229;-48
2021/11/10 03:06:30;;;;;;;3.23;2.53;;;;;21.10;101316.00;;;;2071047;28;20687;-46
2021/11/10 03:07:31;;;;;;;3.40;2.80;;;;;21.00;101309.00;;;;2071242;28;20237;-45
2021/11/10 03:08:31;;;;;;;2.70;2.47;;;;;21.10;101315.00;;;;2071058;28;20214;-45
2021/11/10 03:09:32;;;;;;;3.00;2.63;;;;;21.00;101313.00;;;;2070146;28;20985;-46
2021/11/10 03:10:33;;;;;;;2.70;2.50;;;;;21.10;101302.00;;;;2070991;28;20269;-46
2021/11/10 03:11:33;;;;;;;2.60;2.40;;;;;21.10;101311.00;;;;2070318;28;20305;-45
2021/11/10 03:12:35;;;;;;;3.57;3.27;;;;;21.10;101321.00;;;;2071028;28;20766;-44
2021/11/10 03:13:39;;;;;;;3.15;2.85;;;;;21.10;101318.00;;;;2071079;28;20222;-46
2021/11/10 03:14:40;;;;;;;3.50;3.20;;;;;21.00;101320.00;;;;2070752;28;20214;-45
2021/11/10 03:15:41;;;;;;;2.88;2.60;;;;;21.00;101313.00;;;;2070820;28;20280;-45
2021/11/10 03:16:42;;;;;;;2.70;2.50;;;;;21.00;101320.00;;;;2071115;28;20280;-45
2021/11/10 03:17:43;;;;;;;2.97;2.57;;;;;21.00;101322.00;;;;2070981;28;20462;-48
2021/11/10 03:18:43;;;;;;;2.70;2.45;;;;;21.00;101329.00;;;;2069794;28;20613;-44
2021/11/10 03:19:44;;;;;;;3.03;2.73;;;;;21.00;101317.00;;;;2070121;28;20214;-44
2021/11/10 03:20:45;;;;;;;2.77;2.47;;;;;21.00;101321.00;;;;2071265;28;20721;-47
2021/11/10 03:21:46;;;;;;;3.70;2.63;;;;;21.00;101320.00;;;;2078807;28;20221;-46
2021/11/10 03:22:46;;;;;;;2.97;2.67;;;;;21.00;101314.00;;;;2077012;28;20205;-46
2021/11/10 03:23:46;;;;;;;3.07;2.80;;;;;21.00;101318.00;;;;2073586;28;20646;-48
2021/11/10 03:24:49;;;;;;;3.17;2.80;;;;;21.00;101323.00;;;;2074369;28;20270;-45
2021/11/10 03:25:49;;;;;;;2.90;2.60;;;;;21.00;101321.00;;;;2074055;28;20214;-46
2021/11/10 03:26:50;;;;;;;3.03;2.77;;;;;21.00;101323.00;;;;2071023;28;20305;-44
2021/11/10 03:27:50;;;;;;;2.90;2.70;;;;;21.00;101326.00;;;;2070854;28;20706;-44
2021/11/10 03:28:50;;;;;;;2.90;2.50;;;;;21.00;101325.00;;;;2070406;28;20414;-48
2021/11/10 03:29:51;;;;;;;3.03;2.83;;;;;21.00;101327.00;;;;2073939;28;20218;-46
2021/11/10 03:30:52;;;;;;;2.47;2.27;;;;;21.00;101320.00;;;;2072207;28;20285;-45
2021/11/10 03:31:52;;;;;;;2.97;2.65;;;;;21.00;101315.00;;;;2071813;28;20934;-45
2021/11/10 03:32:55;;;;;;;2.90;2.70;;;;;21.00;101314.00;;;;2071029;28;20218;-46
2021/11/10 03:33:55;;;;;;;3.03;2.72;;;;;21.00;101317.00;;;;2070986;28;20308;-45
2021/11/10 03:34:55;;;;;;;2.70;2.50;;;;;21.00;101315.00;;;;2070754;28;20328;-47
2021/11/10 03:35:56;;;;;;;2.80;2.60;;;;;21.00;101312.00;;;;2070864;28;20221;-48
2021/11/10 03:36:57;;;;;;;3.87;2.60;;;;;21.00;101321.00;;;;2075345;28;20324;-46
2021/11/10 03:37:57;;;;;;;2.87;2.57;;;;;21.00;101315.00;;;;2078776;28;20821;-47
2021/11/10 03:38:57;;;;;;;2.97;2.70;;;;;21.00;101314.00;;;;2078066;28;20224;-45
2021/11/10 03:39:58;;;;;;;2.80;2.50;;;;;21.00;101318.00;;;;2078226;28;20233;-45
2021/11/10 03:40:58;;;;;;;2.57;2.37;;;;;21.00;101322.00;;;;2079222;28;20238;-45
2021/11/10 03:41:58;;;;;;;2.50;2.30;;;;;21.00;101323.00;;;;2079143;28;20213;-46
2021/11/10 03:42:59;;;;;;;3.07;2.70;;;;;21.00;101318.00;;;;2079241;28;20224;-47
2021/11/10 03:43:59;;;;;;;2.90;2.43;;;;;21.00;101317.00;;;;2078666;28;20216;-48
2021/11/10 03:44:59;;;;;;;2.60;2.40;;;;;20.90;101312.00;;;;2078742;28;20213;-46
2021/11/10 03:46:00;;;;;;;2.93;2.70;;;;;21.00;101317.00;;;;2078605;28;20216;-49
2021/11/10 03:47:00;;;;;;;5.00;2.73;;;;;20.90;101315.00;;;;2079078;28;20212;-48
2021/11/10 03:48:00;;;;;;;3.60;2.30;;;;;20.90;101322.00;;;;2078967;28;20733;-46
2021/11/10 03:49:01;;;;;;;3.97;2.90;;;;;20.90;101314.00;;;;2078220;28;20577;-46
2021/11/10 03:50:01;;;;;;;3.27;2.87;;;;;20.90;101319.00;;;;2072741;28;20206;-49
2021/11/10 03:51:02;;;;;;;2.57;2.37;;;;;21.00;101315.00;;;;2070717;28;20206;-46
2021/11/10 03:52:02;;;;;;;2.63;2.37;;;;;21.00;101308.00;;;;2070685;28;20233;-45
2021/11/10 03:53:03;;;;;;;3.47;2.70;;;;;20.90;101312.00;;;;2070918;28;20206;-45
2021/11/10 03:54:04;;;;;;;2.30;2.10;;;;;20.90;101319.00;;;;2070717;28;20215;-46
2021/11/10 03:55:04;;;;;;;2.70;2.27;;;;;21.00;101319.00;;;;2070721;28;20461;-46
2021/11/10 03:56:05;;;;;;;2.50;2.20;;;;;20.90;101311.00;;;;2070730;28;20265;-46
2021/11/10 03:57:05;;;;;;;2.60;2.40;;;;;20.90;101310.00;;;;2070810;28;20221;-45
2021/11/10 03:58:06;;;;;;;3.23;2.47;;;;;20.90;101314.00;;;;2070503;28;20694;-49
2021/11/10 03:59:07;;;;;;;3.47;2.58;;;;;20.90;101307.00;;;;2071631;28;20213;-50
2021/11/10 04:00:08;;;;;;;2.50;2.20;;;;;21.00;101312.00;;;;2065167;28;20214;-45
2021/11/10 04:01:08;;;;;;;2.53;2.33;;;;;20.90;101311.00;;;;2071666;28;20221;-47
2021/11/10 04:02:09;;;;;;;3.33;2.30;;;;;20.90;101314.00;;;;2070812;28;20222;-49
2021/11/10 04:03:10;;;;;;;2.90;2.60;;;;;21.00;101319.00;;;;2069388;28;20211;-48
2021/11/10 04:04:10;;;;;;;2.70;2.17;;;;;21.00;101321.00;;;;2069933;28;20878;-47
2021/11/10 04:05:10;;;;;;;2.40;2.20;;;;;20.90;101312.00;;;;2070723;28;20301;-45
2021/11/10 04:06:11;;;;;;;2.57;2.37;;;;;20.90;101320.00;;;;2070517;28;20221;-47
2021/11/10 04:07:11;;;;;;;2.67;2.47;;;;;20.90;101315.00;;;;2070295;28;20214;-44
2021/11/10 04:08:12;;;;;;;2.90;2.53;;;;;20.90;101331.00;;;;2070538;28;20305;-46
2021/11/10 04:09:12;;;;;;;3.23;2.60;;;;;20.90;101327.00;;;;2069711;28;20214;-47
2021/11/10 04:10:13;;;;;;;2.80;2.53;;;;;20.90;101326.00;;;;2070751;28;20625;-47
2021/11/10 04:11:13;;;;;;;2.50;2.30;;;;;20.90;101330.00;;;;2075006;28;20209;-45
2021/11/10 04:12:13;;;;;;;3.17;2.27;;;;;20.90;101337.00;;;;2078106;28;20245;-45
2021/11/10 04:13:14;;;;;;;2.90;2.60;;;;;20.90;101329.00;;;;2075889;28;20236;-46
2021/11/10 04:14:14;;;;;;;2.50;2.30;;;;;20.90;101330.00;;;;2063550;28;20206;-47
2021/11/10 04:15:15;;;;;;;3.00;2.70;;;;;20.90;101322.00;;;;2070685;28;20224;-45
2021/11/10 04:16:20;;;;;;;2.67;2.43;;;;;20.90;101313.00;;;;2070507;28;20218;-44
2021/11/10 04:17:20;;;;;;;2.60;2.40;;;;;20.80;101307.00;;;;2070596;28;20210;-47
2021/11/10 04:18:20;;;;;;;2.30;2.10;;;;;20.80;101315.00;;;;2070606;28;20849;-46
2021/11/10 04:19:21;;;;;;;2.50;2.30;;;;;20.90;101311.00;;;;2069923;28;20591;-45
2021/11/10 04:20:21;;;;;;;2.77;2.53;;;;;20.80;101313.00;;;;2070718;28;20249;-45
2021/11/10 04:21:22;;;;;;;2.90;2.70;;;;;20.90;101310.00;;;;2070551;28;20205;-45
2021/11/10 04:22:23;;;;;;;2.70;2.50;;;;;20.90;101317.00;;;;2070525;28;20244;-46
2021/11/10 04:23:23;;;;;;;2.53;2.33;;;;;20.90;101312.00;;;;2070601;28;20233;-45
2021/11/10 04:24:24;;;;;;;2.63;2.43;;;;;20.90;101319.00;;;;2070628;28;20777;-46
2021/11/10 04:25:24;;;;;;;2.43;2.23;;;;;20.90;101311.00;;;;2070804;28;20706;-47
2021/11/10 04:26:30;;;;;;;2.60;2.40;;;;;20.90;101322.00;;;;2070628;28;20623;-47
2021/11/10 04:27:31;;;;;;;2.30;2.10;;;;;20.90;101312.00;;;;2070145;28;20275;-48
2021/11/10 04:28:31;;;;;;;2.10;1.90;;;;;20.90;101308.00;;;;2070430;28;20222;-46
2021/11/10 04:29:32;;;;;;;3.13;2.10;;;;;20.90;101310.00;;;;2072648;28;20221;-45
2021/11/10 04:30:32;;;;;;;2.63;2.07;;;;;20.80;101315.00;;;;2070517;28;20222;-44
2021/11/10 04:31:33;;;;;;;2.30;2.10;;;;;20.80;101306.00;;;;2073816;28;20240;-47
2021/11/10 04:32:33;;;;;;;2.93;2.57;;;;;20.90;101309.00;;;;2078069;28;20978;-44
2021/11/10 04:33:34;;;;;;;3.13;2.60;;;;;20.90;101306.00;;;;2078234;28;20221;-46
2021/11/10 04:34:34;;;;;;;4.80;2.40;;;;;20.80;101306.00;;;;2078315;28;20754;-45
2021/11/10 04:35:34;;;;;;;2.67;2.47;;;;;20.80;101297.00;;;;2076994;28;20391;-45
2021/11/10 04:36:35;;;;;;;2.57;2.37;;;;;20.80;101303.00;;;;2069928;28;20233;-48
2021/11/10 04:37:35;;;;;;;2.33;1.90;;;;;20.80;101298.00;;;;2069616;28;20359;-45
2021/11/10 04:38:35;;;;;;;3.67;2.50;;;;;20.70;101304.00;;;;2070469;28;20222;-45
2021/11/10 04:39:36;;;;;;;2.87;2.47;;;;;20.80;101313.00;;;;2077618;28;20371;-46
2021/11/10 04:40:36;;;;;;;2.30;2.10;;;;;20.80;101309.00;;;;2078295;28;20218;-46
2021/11/10 04:41:36;;;;;;;3.80;2.43;;;;;20.80;101313.00;;;;2078305;28;20226;-46
2021/11/10 04:42:37;;;;;;;2.87;2.67;;;;;20.80;101316.00;;;;2077901;28;20217;-48
2021/11/10 04:43:37;;;;;;;2.70;2.50;;;;;20.80;101311.00;;;;2078110;28;20221;-48
2021/11/10 04:44:38;;;;;;;2.40;2.20;;;;;20.80;101314.00;;;;2078283;28;20681;-45
2021/11/10 04:45:39;;;;;;;2.13;1.93;;;;;20.80;101313.00;;;;2078686;28;20300;-44
2021/11/10 04:46:39;;;;;;;3.03;2.67;;;;;20.80;101312.00;;;;2078557;28;20214;-46
2021/11/10 04:47:40;;;;;;;3.00;2.70;;;;;20.80;101320.00;;;;2078558;28;20217;-46
2021/11/10 04:48:40;;;;;;;2.23;2.03;;;;;20.80;101315.00;;;;2078328;28;20218;-50
2021/11/10 04:49:41;;;;;;;2.77;2.53;;;;;20.80;101322.00;;;;2078055;28;20217;-45
2021/11/10 04:50:46;;;;;;;2.70;2.23;;;;;20.80;101319.00;;;;2078623;28;20210;-48
2021/11/10 04:51:46;;;;;;;3.00;2.80;;;;;20.80;101333.00;;;;2078476;28;20236;-45
2021/11/10 04:52:46;;;;;;;2.50;2.30;;;;;20.80;101330.00;;;;2078654;28;20225;-46
2021/11/10 04:53:48;;;;;;;3.23;2.20;;;;;20.80;101328.00;;;;2078620;28;20563;-45
2021/11/10 04:54:52;;;;;;;2.60;2.38;;;;;20.80;101336.00;;;;2078754;28;20217;-45
2021/11/10 04:55:52;;;;;;;2.60;2.33;;;;;20.80;101328.00;;;;2078698;28;20300;-44
2021/11/10 04:56:52;;;;;;;2.63;2.40;;;;;20.80;101333.00;;;;2078553;28;20754;-45
2021/11/10 04:57:53;;;;;;;2.97;2.67;;;;;20.80;101330.00;;;;2078468;28;20221;-44
2021/11/10 04:58:53;;;;;;;3.07;2.23;;;;;20.80;101332.00;;;;2076562;28;20217;-44
2021/11/10 04:59:53;;;;;;;2.40;2.20;;;;;20.80;101329.00;;;;2071457;28;20332;-48
2021/11/10 05:00:54;;;;;;;2.80;2.07;;;;;20.80;101313.00;;;;2071010;28;20218;-46